createdAt,value
2022-10-14T00:02:25.799Z,95297.31
2022-10-14T00:05:10.131Z,95295.72
2022-10-14T00:07:53.226Z,95300.78
2022-10-14T00:10:40.316Z,95292.38
2022-10-14T00:13:23.354Z,95283.09
2022-10-14T00:16:08.318Z,95277.06
2022-10-14T00:18:52.139Z,95282.06
2022-10-14T00:21:37.022Z,95268.34
2022-10-14T00:24:20.040Z,95270.84
2022-10-14T00:27:04.506Z,95273.66
2022-10-14T00:29:47.611Z,95274.47
2022-10-14T00:32:30.723Z,95276.63
2022-10-14T00:35:13.922Z,95272.44
2022-10-14T00:37:56.956Z,95270.41
2022-10-14T00:40:39.974Z,95265.25
2022-10-14T00:43:26.482Z,95268.88
2022-10-14T00:46:12.898Z,95270.56
2022-10-14T00:48:57.832Z,95265.94
2022-10-14T00:51:44.049Z,95268.13
2022-10-14T00:54:31.272Z,95276.03
2022-10-14T00:57:15.080Z,95265.25
2022-10-14T01:00:04.311Z,95266.53
2022-10-14T01:02:49.188Z,95255.78
2022-10-14T01:05:39.944Z,95257.69
2022-10-14T01:08:30.040Z,95258.72
2022-10-14T01:11:20.628Z,95254.84
2022-10-14T01:14:16.832Z,95250.19
2022-10-14T01:17:09.066Z,95246.44
2022-10-14T01:20:17.683Z,95240.44
2022-10-14T01:23:19.177Z,95236.84
2022-10-14T01:26:21.528Z,95223.44
2022-10-14T01:29:19.339Z,95224.13
2022-10-14T01:32:11.620Z,95223.09
2022-10-14T01:34:59.954Z,95221.50
2022-10-14T01:37:50.243Z,95224.34
2022-10-14T01:40:38.897Z,95221.84
2022-10-14T01:43:24.640Z,95217.19
2022-10-14T01:46:09.246Z,95219.13
2022-10-14T01:48:59.420Z,95215.94
2022-10-14T01:51:49.431Z,95217.53
2022-10-14T01:54:36.266Z,95210.97
2022-10-14T01:57:23.560Z,95209.88
2022-10-14T02:00:09.160Z,95219.81
2022-10-14T02:02:52.270Z,95216.19
2022-10-14T02:05:40.273Z,95206.94
2022-10-14T02:08:35.656Z,95211.22
2022-10-14T02:11:20.532Z,95208.00
2022-10-14T02:14:15.604Z,95218.44
2022-10-14T02:17:03.969Z,95200.31
2022-10-14T02:19:51.658Z,95201.47
2022-10-14T02:22:41.009Z,95200.44
2022-10-14T02:25:29.196Z,95208.44
2022-10-14T02:28:16.688Z,95212.22
2022-10-14T02:31:05.777Z,95202.72
2022-10-14T02:33:53.152Z,95202.72
2022-10-14T02:36:37.028Z,95208.59
2022-10-14T02:39:26.589Z,95201.31
2022-10-14T02:42:09.722Z,95204.25
2022-10-14T02:44:56.597Z,95201.84
2022-10-14T02:47:39.779Z,95199.44
2022-10-14T02:50:23.386Z,95193.75
2022-10-14T02:53:06.473Z,95197.59
2022-10-14T02:55:50.898Z,95196.16
2022-10-14T02:58:34.248Z,95194.88
2022-10-14T03:01:17.274Z,95178.16
2022-10-14T03:04:00.386Z,95184.16
2022-10-14T03:06:43.682Z,95181.16
2022-10-14T03:09:27.085Z,95178.88
2022-10-14T03:12:11.505Z,95186.34
2022-10-14T03:14:54.622Z,95187.94
2022-10-14T03:17:37.714Z,95179.97
2022-10-14T03:20:20.780Z,95190.38
2022-10-14T03:23:04.300Z,95189.03
2022-10-14T03:25:47.961Z,95187.22
2022-10-14T03:28:32.441Z,95182.34
2022-10-14T03:31:15.438Z,95179.13
2022-10-14T03:33:58.500Z,95177.09
2022-10-14T03:36:41.557Z,95173.94
2022-10-14T03:39:24.639Z,95176.66
2022-10-14T03:42:07.694Z,95173.63
2022-10-14T03:44:52.168Z,95180.94
2022-10-14T03:47:35.226Z,95176.63
2022-10-14T03:50:18.393Z,95181.16
2022-10-14T03:53:01.427Z,95183.91
2022-10-14T03:55:44.571Z,95171.34
2022-10-14T03:58:27.686Z,95174.25
2022-10-14T04:01:12.142Z,95173.94
2022-10-14T04:03:55.254Z,95172.25
2022-10-14T04:06:38.489Z,95175.03
2022-10-14T04:09:21.812Z,95167.44
2022-10-14T04:12:05.509Z,95171.75
2022-10-14T04:14:48.556Z,95168.22
2022-10-14T04:17:33.152Z,95165.50
2022-10-14T04:20:17.543Z,95161.81
2022-10-14T04:23:02.483Z,95163.81
2022-10-14T04:25:47.658Z,95156.59
2022-10-14T04:28:30.816Z,95158.41
2022-10-14T04:31:15.621Z,95153.41
2022-10-14T04:34:00.137Z,95150.84
2022-10-14T04:36:43.229Z,95143.06
2022-10-14T04:39:26.327Z,95145.66
2022-10-14T04:42:09.558Z,95149.34
2022-10-14T04:44:52.614Z,95156.16
2022-10-14T04:47:38.243Z,95146.31
2022-10-14T04:50:22.980Z,95156.84
2022-10-14T04:53:09.431Z,95149.72
2022-10-14T04:55:55.130Z,95146.31
2022-10-14T04:58:38.289Z,95139.66
2022-10-14T05:01:21.424Z,95140.13
2022-10-14T05:04:04.926Z,95140.13
2022-10-14T05:06:49.623Z,95134.03
2022-10-14T05:09:33.676Z,95139.53
2022-10-14T05:12:16.993Z,95139.06
2022-10-14T05:15:00.957Z,95128.22
2022-10-14T05:17:45.363Z,95132.09
2022-10-14T05:20:29.149Z,95142.41
2022-10-14T05:23:14.402Z,95139.84
2022-10-14T05:25:58.213Z,95141.66
2022-10-14T05:28:42.108Z,95139.53
2022-10-14T05:31:25.960Z,95139.31
2022-10-14T05:34:09.733Z,95139.66
2022-10-14T05:37:01.482Z,95142.81
2022-10-14T05:39:48.963Z,95128.53
2022-10-14T05:42:37.545Z,95138.28
2022-10-14T05:45:21.814Z,95142.66
2022-10-14T05:48:06.250Z,95149.75
2022-10-14T05:50:54.094Z,95146.94
2022-10-14T05:53:40.996Z,95147.91
2022-10-14T05:56:28.059Z,95156.75
2022-10-14T05:59:11.895Z,95154.91
2022-10-14T06:01:58.175Z,95152.53
2022-10-14T06:04:43.988Z,95166.47
2022-10-14T06:07:30.733Z,95162.72
2022-10-14T06:10:17.051Z,95160.91
2022-10-14T06:13:03.089Z,95162.06
2022-10-14T06:15:49.802Z,95175.84
2022-10-14T06:18:35.603Z,95171.25
2022-10-14T06:21:22.443Z,95161.53
2022-10-14T06:24:07.555Z,95171.69
2022-10-14T06:26:52.101Z,95178.94
2022-10-14T06:29:39.727Z,95172.66
2022-10-14T06:32:27.053Z,95183.75
2022-10-14T06:35:16.900Z,95183.19
2022-10-14T06:38:05.293Z,95179.78
2022-10-14T06:40:54.299Z,95178.53
2022-10-14T06:43:41.127Z,95175.09
2022-10-14T06:46:27.300Z,95180.38
2022-10-14T06:49:13.587Z,95176.44
2022-10-14T06:51:58.313Z,95180.13
2022-10-14T06:54:48.002Z,95180.31
2022-10-14T06:57:34.811Z,95174.22
2022-10-14T07:00:20.920Z,95174.38
2022-10-14T07:03:07.458Z,95173.97
2022-10-14T07:05:52.729Z,95168.03
2022-10-14T07:08:38.916Z,95170.81
2022-10-14T07:11:27.743Z,95171.22
2022-10-14T07:14:14.408Z,95172.78
2022-10-14T07:16:59.537Z,95169.59
2022-10-14T07:19:46.265Z,95170.22
2022-10-14T07:22:33.005Z,95170.94
2022-10-14T07:25:23.053Z,95158.88
2022-10-14T07:28:09.682Z,95170.63
2022-10-14T07:31:04.646Z,95168.13
2022-10-14T07:33:50.457Z,95166.59
2022-10-14T07:36:36.914Z,95164.94
2022-10-14T07:39:22.022Z,95171.66
2022-10-14T07:42:09.558Z,95170.00
2022-10-14T07:45:01.656Z,95165.53
2022-10-14T07:47:53.066Z,95163.63
2022-10-14T07:50:44.115Z,95172.78
2022-10-14T07:53:33.876Z,95168.28
2022-10-14T07:56:20.191Z,95164.00
2022-10-14T07:59:08.848Z,95166.19
2022-10-14T08:01:58.026Z,95158.47
2022-10-14T08:04:54.409Z,95171.38
2022-10-14T08:07:39.947Z,95165.75
2022-10-14T08:10:31.117Z,95163.41
2022-10-14T08:13:19.965Z,95156.34
2022-10-14T08:16:20.605Z,95153.97
2022-10-14T08:19:13.440Z,95156.34
2022-10-14T08:22:03.846Z,95164.16
2022-10-14T08:25:00.234Z,95174.97
2022-10-14T08:27:52.669Z,95160.47
2022-10-14T08:30:42.386Z,95158.16
2022-10-14T08:33:27.701Z,95156.41
2022-10-14T08:36:22.065Z,95167.69
2022-10-14T08:42:32.527Z,95151.19
2022-10-14T08:45:24.675Z,95152.78
2022-10-14T08:48:19.603Z,95163.41
2022-10-14T08:51:11.889Z,95165.63
2022-10-14T08:54:04.402Z,95158.75
2022-10-14T08:56:49.804Z,95161.94
2022-10-14T08:59:40.943Z,95165.63
2022-10-14T09:02:41.299Z,95161.63
2022-10-14T09:05:31.228Z,95156.66
2022-10-14T09:08:19.983Z,95151.06
2022-10-14T09:11:20.278Z,95146.19
2022-10-14T09:14:08.618Z,95160.63
2022-10-14T09:20:07.177Z,95141.16
2022-10-14T09:23:21.283Z,95154.47
2022-10-14T09:26:13.762Z,95145.69
2022-10-14T09:29:01.233Z,95139.66
2022-10-14T09:31:46.485Z,95147.91
2022-10-14T09:34:36.649Z,95140.28
2022-10-14T09:37:33.897Z,95137.97
2022-10-14T09:40:25.320Z,95155.00
2022-10-14T09:43:24.406Z,95136.78
2022-10-14T09:46:15.617Z,95143.66
2022-10-14T09:49:10.559Z,95147.78
2022-10-14T09:51:57.722Z,95138.22
2022-10-14T09:54:45.852Z,95142.09
2022-10-14T09:57:35.248Z,95134.03
2022-10-14T10:00:33.371Z,95145.47
2022-10-14T10:03:37.106Z,95141.56
2022-10-14T10:06:27.917Z,95150.72
2022-10-14T10:09:24.616Z,95151.00
2022-10-14T10:12:31.955Z,95147.09
2022-10-14T10:15:26.750Z,95139.94
2022-10-14T10:18:22.591Z,95145.38
2022-10-14T10:21:19.107Z,95155.81
2022-10-14T10:24:06.650Z,95136.97
2022-10-14T10:26:50.525Z,95137.63
2022-10-14T10:29:35.501Z,95131.75
2022-10-14T10:32:30.535Z,95124.31
2022-10-14T10:35:23.805Z,95126.16
2022-10-14T10:38:14.690Z,95123.81
2022-10-14T10:41:15.359Z,95114.47
2022-10-14T10:44:22.899Z,95107.53
2022-10-14T10:47:18.927Z,95105.53
2022-10-14T10:50:17.214Z,95100.16
2022-10-14T10:53:26.259Z,95102.97
2022-10-14T10:56:18.542Z,95102.25
2022-10-14T10:59:15.774Z,95100.97
2022-10-14T11:02:19.623Z,95103.72
2022-10-14T11:05:13.634Z,95110.91
2022-10-14T11:08:17.973Z,95104.16
2022-10-14T11:11:22.517Z,95111.16
2022-10-14T11:14:25.412Z,95096.00
2022-10-14T11:17:17.037Z,95082.63
2022-10-14T11:20:13.625Z,95081.72
2022-10-14T11:23:15.785Z,95078.91
2022-10-14T11:26:05.302Z,95079.72
2022-10-14T11:28:57.023Z,95080.09
2022-10-14T11:31:51.122Z,95069.31
2022-10-14T11:34:44.174Z,95057.41
2022-10-14T11:37:36.992Z,95049.34
2022-10-14T11:40:28.885Z,95050.72
2022-10-14T11:43:23.570Z,95055.94
2022-10-14T11:46:09.040Z,95043.06
2022-10-14T11:48:56.701Z,95046.91
2022-10-14T11:51:43.686Z,95037.69
2022-10-14T11:54:34.714Z,95045.59
2022-10-14T11:57:28.827Z,95042.81
2022-10-14T12:00:32.310Z,95041.88
2022-10-14T12:03:25.353Z,95039.03
2022-10-14T12:06:17.197Z,95037.09
2022-10-14T12:09:04.549Z,95030.66
2022-10-14T12:11:53.660Z,95029.59
2022-10-14T12:14:39.668Z,95035.16
2022-10-14T12:17:26.668Z,95037.28
2022-10-14T12:20:23.437Z,95030.47
2022-10-14T12:23:10.137Z,95027.81
2022-10-14T12:25:58.212Z,95034.16
2022-10-14T12:28:43.412Z,95032.59
2022-10-14T12:31:36.707Z,95037.88
2022-10-14T12:34:34.834Z,95037.31
2022-10-14T12:37:52.416Z,95043.59
2022-10-14T12:40:36.752Z,95053.00
2022-10-14T12:43:23.662Z,95047.44
2022-10-14T12:46:16.573Z,95051.91
2022-10-14T12:49:00.473Z,95048.75
2022-10-14T12:51:54.396Z,95042.94
2022-10-14T12:54:47.395Z,95041.59
2022-10-14T12:57:33.760Z,95035.81
2022-10-14T13:00:31.821Z,95041.59
2022-10-14T13:03:26.367Z,95041.84
2022-10-14T13:06:43.674Z,95036.34
2022-10-14T13:09:36.158Z,95037.72
2022-10-14T13:12:40.953Z,95031.91
2022-10-14T13:15:57.969Z,95026.09
2022-10-14T13:18:53.765Z,95031.09
2022-10-14T13:21:53.997Z,95032.66
2022-10-14T13:24:41.659Z,95029.00
2022-10-14T13:27:40.740Z,95033.47
2022-10-14T13:30:34.000Z,95035.00
2022-10-14T13:33:23.842Z,95038.63
2022-10-14T13:36:16.169Z,95030.50
2022-10-14T13:39:01.847Z,95038.56
2022-10-14T13:41:45.885Z,95035.13
2022-10-14T13:44:29.240Z,95029.09
2022-10-14T13:47:15.369Z,95032.19
2022-10-14T13:49:58.814Z,95044.91
2022-10-14T13:52:49.050Z,95035.72
2022-10-14T13:55:32.224Z,95043.63
2022-10-14T13:58:17.160Z,95031.00
2022-10-14T14:01:05.148Z,95036.72
2022-10-14T14:03:52.645Z,95038.69
2022-10-14T14:06:45.372Z,95048.00
2022-10-14T14:09:40.246Z,95040.03
2022-10-14T14:12:23.603Z,95045.47
2022-10-14T14:15:08.332Z,95038.06
2022-10-14T14:17:51.833Z,95039.84
2022-10-14T14:20:35.379Z,95044.00
2022-10-14T14:23:18.588Z,95048.00
2022-10-14T14:26:18.883Z,95037.78
2022-10-14T14:29:06.088Z,95045.66
2022-10-14T14:37:56.229Z,95051.41
2022-10-14T14:40:39.605Z,95046.53
2022-10-14T14:43:24.312Z,95053.28
2022-10-14T14:46:08.069Z,95047.72
2022-10-14T14:48:55.103Z,95063.41
2022-10-14T14:51:40.430Z,95054.66
2022-10-14T14:54:24.729Z,95065.66
2022-10-14T14:57:10.972Z,95071.63
2022-10-14T15:00:02.109Z,95072.81
2022-10-14T15:02:45.720Z,95068.75
2022-10-14T15:05:29.941Z,95064.38
2022-10-14T15:08:22.685Z,95065.41
2022-10-14T15:11:06.491Z,95067.13
2022-10-14T15:13:52.905Z,95065.53
2022-10-14T15:16:42.419Z,95061.56
2022-10-14T15:19:38.168Z,95057.78
2022-10-14T15:22:29.616Z,95059.38
2022-10-14T15:25:24.747Z,95059.88
2022-10-14T15:28:30.641Z,95060.91
2022-10-14T15:31:17.229Z,95063.22
2022-10-14T15:34:02.267Z,95063.44
2022-10-14T15:36:45.568Z,95056.56
2022-10-14T15:39:28.619Z,95064.84
2022-10-14T15:42:15.037Z,95066.13
2022-10-14T15:44:58.574Z,95067.88
2022-10-14T15:47:42.483Z,95072.03
2022-10-14T15:50:29.407Z,95061.72
2022-10-14T15:53:15.489Z,95060.94
2022-10-14T15:56:00.360Z,95066.16
2022-10-14T15:58:43.783Z,95067.44
2022-10-14T16:01:27.036Z,95071.22
2022-10-14T16:04:17.375Z,95079.09
2022-10-14T16:07:01.989Z,95084.81
2022-10-14T16:09:45.049Z,95084.88
2022-10-14T16:12:29.938Z,95074.66
2022-10-14T16:15:31.533Z,95080.03
2022-10-14T16:18:14.694Z,95081.78
2022-10-14T16:20:57.909Z,95083.41
2022-10-14T16:23:43.507Z,95085.81
2022-10-14T16:26:27.097Z,95083.97
2022-10-14T16:29:10.522Z,95077.22
2022-10-14T16:31:54.359Z,95082.06
2022-10-14T16:34:37.632Z,95075.09
2022-10-14T16:37:22.996Z,95085.16
2022-10-14T16:40:09.929Z,95080.31
2022-10-14T16:42:55.124Z,95074.53
2022-10-14T16:45:38.219Z,95084.09
2022-10-14T16:48:21.483Z,95076.94
2022-10-14T16:51:05.114Z,95089.53
2022-10-14T16:53:49.215Z,95081.47
2022-10-14T16:56:51.122Z,95079.44
2022-10-14T16:59:34.891Z,95080.22
2022-10-14T17:02:18.463Z,95079.66
2022-10-14T17:05:01.560Z,95087.38
2022-10-14T17:07:44.667Z,95090.47
2022-10-14T17:10:27.766Z,95082.91
2022-10-14T17:13:12.235Z,95086.88
2022-10-14T17:16:00.894Z,95078.47
2022-10-14T17:18:44.220Z,95084.97
2022-10-14T17:21:29.689Z,95089.28
2022-10-14T17:24:14.338Z,95083.66
2022-10-14T17:27:06.271Z,95072.09
2022-10-14T17:29:51.243Z,95079.78
2022-10-14T17:32:34.773Z,95077.88
2022-10-14T17:35:18.244Z,95082.28
2022-10-14T17:38:02.941Z,95082.41
2022-10-14T17:40:47.550Z,95080.25
2022-10-14T17:43:33.439Z,95086.25
2022-10-14T17:46:23.761Z,95075.97
2022-10-14T17:49:10.859Z,95066.56
2022-10-14T17:51:57.205Z,95083.41
2022-10-14T17:54:42.399Z,95092.84
2022-10-14T17:57:32.652Z,95088.84
2022-10-14T18:00:16.387Z,95077.53
2022-10-14T18:03:00.847Z,95093.06
2022-10-14T18:05:48.750Z,95087.84
2022-10-14T18:08:32.420Z,95097.34
2022-10-14T18:11:15.761Z,95092.03
2022-10-14T18:14:04.705Z,95093.19
2022-10-14T18:16:48.211Z,95091.69
2022-10-14T18:19:32.802Z,95088.78
2022-10-14T18:22:16.071Z,95086.84
2022-10-14T18:24:59.379Z,95081.41
2022-10-14T18:27:42.705Z,95087.53
2022-10-14T18:30:25.911Z,95087.78
2022-10-14T18:33:09.251Z,95098.78
2022-10-14T18:35:53.805Z,95088.81
2022-10-14T18:38:37.675Z,95089.25
2022-10-14T18:41:21.725Z,95096.94
2022-10-14T18:44:05.669Z,95097.19
2022-10-14T18:46:48.700Z,95098.63
2022-10-14T18:49:34.545Z,95113.81
2022-10-14T18:52:22.690Z,95110.97
2022-10-14T18:55:06.803Z,95113.78
2022-10-14T18:57:49.863Z,95114.19
2022-10-14T19:00:33.597Z,95111.16
2022-10-14T19:03:16.579Z,95123.44
2022-10-14T19:05:59.915Z,95118.91
2022-10-14T19:08:45.595Z,95120.53
2022-10-14T19:11:30.400Z,95126.53
2022-10-14T19:14:16.231Z,95124.19
2022-10-14T19:16:59.303Z,95128.66
2022-10-14T19:19:42.537Z,95128.94
2022-10-14T19:22:26.079Z,95130.41
2022-10-14T19:25:11.354Z,95129.72
2022-10-14T19:27:55.402Z,95135.72
2022-10-14T19:30:40.758Z,95136.75
2022-10-14T19:33:26.585Z,95127.47
2022-10-14T19:36:11.159Z,95132.94
2022-10-14T19:38:57.947Z,95126.53
2022-10-14T19:41:46.605Z,95137.63
2022-10-14T19:44:29.875Z,95143.72
2022-10-14T19:47:13.277Z,95146.34
2022-10-14T19:49:56.452Z,95158.84
2022-10-14T19:52:40.531Z,95154.34
2022-10-14T19:55:23.719Z,95160.47
2022-10-14T19:58:10.447Z,95165.34
2022-10-14T20:00:57.057Z,95156.41
2022-10-14T20:03:40.721Z,95148.34
2022-10-14T20:06:26.140Z,95160.41
2022-10-14T20:09:09.860Z,95163.34
2022-10-14T20:11:54.704Z,95158.88
2022-10-14T20:14:39.193Z,95162.53
2022-10-14T20:17:27.058Z,95159.50
2022-10-14T20:20:11.154Z,95164.03
2022-10-14T20:22:54.250Z,95168.34
2022-10-14T20:25:37.278Z,95163.75
2022-10-14T20:28:20.509Z,95161.63
2022-10-14T20:31:07.573Z,95157.59
2022-10-14T20:33:50.660Z,95159.06
2022-10-14T20:36:33.756Z,95157.06
2022-10-14T20:39:16.777Z,95156.59
2022-10-14T20:42:00.111Z,95152.97
2022-10-14T20:44:43.237Z,95157.59
2022-10-14T20:47:27.645Z,95155.94
2022-10-14T20:50:14.056Z,95155.25
2022-10-14T20:52:57.225Z,95150.94
2022-10-14T20:55:40.273Z,95152.97
2022-10-14T20:58:24.206Z,95150.69
2022-10-14T21:01:09.776Z,95153.88
2022-10-14T21:03:55.180Z,95147.75
2022-10-14T21:06:39.491Z,95153.66
2022-10-14T21:09:22.672Z,95155.13
2022-10-14T21:12:05.958Z,95158.75
2022-10-14T21:14:49.019Z,95154.81
2022-10-14T21:17:32.052Z,95157.97
2022-10-14T21:20:16.974Z,95143.72
2022-10-14T21:23:00.046Z,95138.16
2022-10-14T21:25:43.085Z,95151.16
2022-10-14T21:28:26.679Z,95153.22
2022-10-14T21:31:13.603Z,95151.75
2022-10-14T21:34:05.453Z,95148.81
2022-10-14T21:36:50.360Z,95155.78
2022-10-14T21:39:33.354Z,95154.19
2022-10-14T21:42:16.679Z,95142.91
2022-10-14T21:44:59.760Z,95155.59
2022-10-14T21:47:42.812Z,95158.75
2022-10-14T21:50:25.981Z,95159.44
2022-10-14T21:53:12.603Z,95168.38
2022-10-14T21:55:58.579Z,95169.06
2022-10-14T21:58:41.835Z,95167.50
2022-10-14T22:01:28.582Z,95177.22
2022-10-14T22:04:12.099Z,95173.59
2022-10-14T22:06:55.281Z,95169.75
2022-10-14T22:09:39.768Z,95173.38
2022-10-14T22:12:22.852Z,95159.19
2022-10-14T22:15:07.204Z,95173.13
2022-10-14T22:17:52.343Z,95169.59
2022-10-14T22:20:35.411Z,95172.00
2022-10-14T22:23:18.484Z,95166.91
2022-10-14T22:26:04.582Z,95172.22
2022-10-14T22:28:48.283Z,95178.09
2022-10-14T22:31:32.980Z,95172.53
2022-10-14T22:34:17.808Z,95180.34
2022-10-14T22:37:01.825Z,95179.63
2022-10-14T22:39:44.857Z,95184.31
2022-10-14T22:45:17.457Z,95177.94
2022-10-14T22:48:00.665Z,95178.75
2022-10-14T22:50:43.694Z,95183.41
2022-10-14T22:53:29.045Z,95180.69
2022-10-14T22:56:13.759Z,95163.91
2022-10-14T22:59:00.411Z,95183.41
2022-10-14T23:01:44.277Z,95182.34
2022-10-14T23:04:27.558Z,95181.50
2022-10-14T23:07:10.961Z,95180.47
2022-10-14T23:09:53.948Z,95183.41
2022-10-14T23:12:36.984Z,95183.41
2022-10-14T23:15:21.411Z,95182.63
2022-10-14T23:18:04.989Z,95180.94
2022-10-14T23:20:48.031Z,95181.66
2022-10-14T23:23:31.055Z,95183.56
2022-10-14T23:26:16.573Z,95189.22
2022-10-14T23:29:00.907Z,95180.94
2022-10-14T23:31:45.426Z,95182.97
2022-10-14T23:34:28.466Z,95197.13
2022-10-14T23:37:11.613Z,95202.88
2022-10-14T23:39:54.673Z,95202.16
2022-10-14T23:42:37.677Z,95186.06
2022-10-14T23:45:20.717Z,95192.38
2022-10-14T23:48:05.610Z,95197.75
2022-10-14T23:50:48.715Z,95181.13
2022-10-14T23:53:31.769Z,95190.06
2022-10-14T23:56:14.798Z,95194.38
2022-10-14T23:58:57.897Z,95196.97
